Aérodrome :
LOGIN :

S'inscrire | Disclaimer

   EN    FR    IT 

 










Légende :    VFR   VFR Marginal   IFR   IFR Intensif   IFR Très Intensif
Visi : 
Plafond : 
>= 8 km
>= 3000ft
5 à 8 km
1000 à 3000 ft
1500m à 5 km
500 à 1000 ft
800 à 1500m
200 à 500 ft
< 800m
< 200 ft
Symboles :   Orages  Brouillard  Fortes neiges  Fortes précipitations  Vent > 20 kt
SIGMETs :   Divers  Orages  Givrage  Turbulence  Onde Orograph.  Cendres Volcan.






- Altitude de l'aérodrome : 1276 ft
- Code IATA : STR


EDDS - Stuttgart

DERNIER METAR :
  • 141250Z AUTO VRB06KT 9999 FEW039 SCT046 20/11 Q1012 NOSIG

METARs EXPIRÉS :
  • 141220Z AUTO 22008KT 170V280 9999 SCT039 20/11 Q1012 NOSIG
  • 141150Z AUTO 21005KT 150V320 9999 BKN037 18/10 Q1012 NOSIG
  • 141120Z AUTO 21006KT 120V280 9999 BKN034 17/10 Q1012 NOSIG
  • 141050Z AUTO VRB07KT 9999 SCT036 17/10 Q1013 NOSIG
  • 141020Z AUTO VRB04KT 9999 -RA BKN035 BKN048 16/10 Q1013 NOSIG
  • 140950Z AUTO 19006KT 120V240 9999 BKN037 BKN046 16/10 Q1013 NOSIG
  • 140920Z AUTO VRB04KT 9999 BKN044 15/10 Q1013 NOSIG
  • 140850Z AUTO 15003KT 090V230 CAVOK 14/10 Q1013 NOSIG

TAF TAF EDDS
Valide du 14 à 12h jusqu'au 15 à 12h UTC


141100Z 1412/1512 22008KT 9999 BKN040
BECMG 1417/1419 16004KT
TEMPO 1422/1508 RA
PROB30
TEMPO 1502/1508 2500 +SHRA BKN014TCU
BECMG 1504/1506 22005KT
TEMPO 1508/1512 23015G25KT



MET'MAP, la Météo Aéronautique d'un coup d'oeil ! - Copyright ORBIFLY Décembre 2007 - Disclaimer

ORBIFLY MET'MAP TEAM :

Programmation & Développement : Alexandra Zaïnal
Sur une idée originale de : Baudouin d'Aumeries
Soutien technique & logistique : Manuel Goepfert
Assistance : Marc-Olivier Méhu




SOURCES & CREDITS :

   NOAA